sensor_id;sensor_type;location;lat;lon;timestamp;P1;durP1;ratioP1;P2;durP2;ratioP2
3696;SDS011;60662;48.810;8.872;2023-07-13T08:18:21;1573.03;;;897.20;;
3696;SDS011;60662;48.810;8.872;2023-07-13T08:20:30;1179.50;;;999.90;;
3696;SDS011;60662;48.810;8.872;2023-07-13T08:21:32;1176.72;;;999.90;;
3696;SDS011;60662;48.810;8.872;2023-07-13T08:22:33;2250.00;;;999.90;;
3696;SDS011;60662;48.810;8.872;2023-07-13T08:23:36;2250.00;;;999.90;;
3696;SDS011;60662;48.810;8.872;2023-07-13T08:24:38;2250.00;;;999.90;;
3696;SDS011;60662;48.810;8.872;2023-07-13T08:25:39;2250.00;;;999.90;;
3696;SDS011;60662;48.810;8.872;2023-07-13T08:26:41;2250.00;;;999.90;;
3696;SDS011;60662;48.810;8.872;2023-07-13T08:29:10;2250.00;;;999.90;;
3696;SDS011;60662;48.810;8.872;2023-07-13T08:30:11;2250.00;;;999.90;;
3696;SDS011;60662;48.810;8.872;2023-07-13T08:31:13;2250.00;;;999.90;;
3696;SDS011;60662;48.810;8.872;2023-07-13T08:32:15;2250.00;;;999.90;;
3696;SDS011;60662;48.810;8.872;2023-07-13T08:33:19;2250.00;;;999.90;;
3696;SDS011;60662;48.810;8.872;2023-07-13T08:34:22;2250.00;;;999.90;;
3696;SDS011;60662;48.810;8.872;2023-07-13T08:35:23;2250.00;;;999.90;;
3696;SDS011;60662;48.810;8.872;2023-07-13T08:36:26;2250.00;;;999.90;;
3696;SDS011;60662;48.810;8.872;2023-07-13T08:37:29;2250.00;;;999.90;;
3696;SDS011;60662;48.810;8.872;2023-07-13T08:38:30;2250.00;;;999.90;;
3696;SDS011;60662;48.810;8.872;2023-07-13T08:39:32;2250.00;;;999.90;;
3696;SDS011;60662;48.810;8.872;2023-07-13T08:40:36;2250.00;;;999.90;;
3696;SDS011;60662;48.810;8.872;2023-07-13T08:41:38;2250.00;;;999.90;;
3696;SDS011;60662;48.810;8.872;2023-07-13T08:42:42;2250.00;;;999.90;;
3696;SDS011;60662;48.810;8.872;2023-07-13T08:43:49;2250.00;;;999.90;;
3696;SDS011;60662;48.810;8.872;2023-07-13T08:45:07;2250.00;;;999.90;;
3696;SDS011;60662;48.810;8.872;2023-07-13T08:47:38;2250.00;;;999.90;;
3696;SDS011;60662;48.810;8.872;2023-07-13T08:49:03;2250.00;;;999.90;;
3696;SDS011;60662;48.810;8.872;2023-07-13T08:50:11;2250.00;;;999.90;;
3696;SDS011;60662;48.810;8.872;2023-07-13T08:52:39;2250.00;;;999.90;;
3696;SDS011;60662;48.810;8.872;2023-07-13T08:54:44;2250.00;;;999.90;;
3696;SDS011;60662;48.810;8.872;2023-07-13T08:55:58;2250.00;;;999.90;;
3696;SDS011;60662;48.810;8.872;2023-07-13T08:57:02;2250.00;;;999.90;;
3696;SDS011;60662;48.810;8.872;2023-07-13T08:58:13;2250.00;;;999.90;;
3696;SDS011;60662;48.810;8.872;2023-07-13T08:59:17;2250.00;;;999.90;;
3696;SDS011;60662;48.810;8.872;2023-07-13T09:00:21;2250.00;;;999.90;;
3696;SDS011;60662;48.810;8.872;2023-07-13T09:03:01;2250.00;;;999.90;;
3696;SDS011;60662;48.810;8.872;2023-07-13T09:04:11;2250.00;;;999.90;;
3696;SDS011;60662;48.810;8.872;2023-07-13T09:05:31;2250.00;;;999.90;;
3696;SDS011;60662;48.810;8.872;2023-07-13T09:06:44;2250.00;;;999.90;;
3696;SDS011;60662;48.810;8.872;2023-07-13T09:07:53;2250.00;;;999.90;;
3696;SDS011;60662;48.810;8.872;2023-07-13T09:09:01;2250.00;;;999.90;;
3696;SDS011;60662;48.810;8.872;2023-07-13T09:10:18;2250.00;;;999.90;;
3696;SDS011;60662;48.810;8.872;2023-07-13T09:11:41;2250.00;;;999.90;;
3696;SDS011;60662;48.810;8.872;2023-07-13T09:15:50;2250.00;;;999.90;;
3696;SDS011;60662;48.810;8.872;2023-07-13T09:16:52;2250.00;;;999.90;;
3696;SDS011;60662;48.810;8.872;2023-07-13T09:17:56;2250.00;;;999.90;;
3696;SDS011;60662;48.810;8.872;2023-07-13T09:19:06;2250.00;;;999.90;;
3696;SDS011;60662;48.810;8.872;2023-07-13T09:20:26;2250.00;;;999.90;;
3696;SDS011;60662;48.810;8.872;2023-07-13T09:21:34;2250.00;;;999.90;;
3696;SDS011;60662;48.810;8.872;2023-07-13T09:22:39;2250.00;;;999.90;;
3696;SDS011;60662;48.810;8.872;2023-07-13T09:23:42;2250.00;;;999.90;;
3696;SDS011;60662;48.810;8.872;2023-07-13T09:24:52;2250.00;;;999.90;;
3696;SDS011;60662;48.810;8.872;2023-07-13T09:26:00;2250.00;;;999.90;;
3696;SDS011;60662;48.810;8.872;2023-07-13T09:27:18;1369.78;;;738.72;;
3696;SDS011;60662;48.810;8.872;2023-07-13T09:28:24;2250.00;;;999.90;;
3696;SDS011;60662;48.810;8.872;2023-07-13T09:29:34;2250.00;;;999.90;;
3696;SDS011;60662;48.810;8.872;2023-07-13T09:31:58;2250.00;;;999.90;;
3696;SDS011;60662;48.810;8.872;2023-07-13T09:33:04;2250.00;;;999.90;;
3696;SDS011;60662;48.810;8.872;2023-07-13T09:34:09;2250.00;;;999.90;;
3696;SDS011;60662;48.810;8.872;2023-07-13T09:35:12;2250.00;;;999.90;;
3696;SDS011;60662;48.810;8.872;2023-07-13T09:36:21;2250.00;;;999.90;;
3696;SDS011;60662;48.810;8.872;2023-07-13T09:37:28;2250.00;;;999.90;;
3696;SDS011;60662;48.810;8.872;2023-07-13T09:38:32;2250.00;;;999.90;;
3696;SDS011;60662;48.810;8.872;2023-07-13T09:39:37;2250.00;;;999.90;;
3696;SDS011;60662;48.810;8.872;2023-07-13T09:42:18;2250.00;;;999.90;;
3696;SDS011;60662;48.810;8.872;2023-07-13T09:43:23;2250.00;;;999.90;;
3696;SDS011;60662;48.810;8.872;2023-07-13T09:44:32;2250.00;;;999.90;;
3696;SDS011;60662;48.810;8.872;2023-07-13T09:45:36;2250.00;;;999.90;;
3696;SDS011;60662;48.810;8.872;2023-07-13T09:46:39;2250.00;;;999.90;;
3696;SDS011;60662;48.810;8.872;2023-07-13T09:47:46;2250.00;;;999.90;;
3696;SDS011;60662;48.810;8.872;2023-07-13T09:48:49;2250.00;;;999.90;;
3696;SDS011;60662;48.810;8.872;2023-07-13T09:49:55;2250.00;;;999.90;;
3696;SDS011;60662;48.810;8.872;2023-07-13T09:51:06;2250.00;;;999.90;;
3696;SDS011;60662;48.810;8.872;2023-07-13T09:52:15;2250.00;;;999.90;;
3696;SDS011;60662;48.810;8.872;2023-07-13T09:53:18;2250.00;;;999.90;;
3696;SDS011;60662;48.810;8.872;2023-07-13T09:54:23;934.97;;;846.75;;
3696;SDS011;60662;48.810;8.872;2023-07-13T09:55:27;1257.45;;;887.35;;
3696;SDS011;60662;48.810;8.872;2023-07-13T09:56:30;2250.00;;;999.90;;
3696;SDS011;60662;48.810;8.872;2023-07-13T09:57:33;2250.00;;;999.90;;
3696;SDS011;60662;48.810;8.872;2023-07-13T09:58:51;2250.00;;;999.90;;
3696;SDS011;60662;48.810;8.872;2023-07-13T09:59:54;2250.00;;;999.90;;
3696;SDS011;60662;48.810;8.872;2023-07-13T10:00:59;2250.00;;;999.90;;
3696;SDS011;60662;48.810;8.872;2023-07-13T10:02:26;2250.00;;;999.90;;
3696;SDS011;60662;48.810;8.872;2023-07-13T10:03:35;2250.00;;;999.90;;
3696;SDS011;60662;48.810;8.872;2023-07-13T10:04:41;2250.00;;;999.90;;
3696;SDS011;60662;48.810;8.872;2023-07-13T10:05:43;2250.00;;;999.90;;
3696;SDS011;60662;48.810;8.872;2023-07-13T10:06:46;2250.00;;;999.90;;
3696;SDS011;60662;48.810;8.872;2023-07-13T10:07:50;789.78;;;705.42;;
3696;SDS011;60662;48.810;8.872;2023-07-13T10:08:52;1020.47;;;919.45;;
3696;SDS011;60662;48.810;8.872;2023-07-13T10:09:58;2250.00;;;999.90;;
3696;SDS011;60662;48.810;8.872;2023-07-13T10:11:12;1034.68;;;939.75;;
3696;SDS011;60662;48.810;8.872;2023-07-13T10:12:19;1004.83;;;913.22;;
3696;SDS011;60662;48.810;8.872;2023-07-13T10:13:55;986.33;;;895.90;;
3696;SDS011;60662;48.810;8.872;2023-07-13T10:14:57;2250.00;;;999.90;;
3696;SDS011;60662;48.810;8.872;2023-07-13T10:16:22;1214.10;;;853.30;;
3696;SDS011;60662;48.810;8.872;2023-07-13T10:17:27;2250.00;;;999.90;;
3696;SDS011;60662;48.810;8.872;2023-07-13T10:18:35;2250.00;;;999.90;;
3696;SDS011;60662;48.810;8.872;2023-07-13T10:19:41;2250.00;;;999.90;;
3696;SDS011;60662;48.810;8.872;2023-07-13T10:20:47;1062.22;;;959.97;;
3696;SDS011;60662;48.810;8.872;2023-07-13T10:21:59;980.50;;;889.80;;
3696;SDS011;60662;48.810;8.872;2023-07-13T10:23:04;2250.00;;;999.90;;
3696;SDS011;60662;48.810;8.872;2023-07-13T10:24:22;2250.00;;;999.90;;
3696;SDS011;60662;48.810;8.872;2023-07-13T10:25:25;2250.00;;;999.90;;
3696;SDS011;60662;48.810;8.872;2023-07-13T10:26:31;2250.00;;;999.90;;
3696;SDS011;60662;48.810;8.872;2023-07-13T10:27:35;2250.00;;;999.90;;
3696;SDS011;60662;48.810;8.872;2023-07-13T10:28:37;2250.00;;;999.90;;
3696;SDS011;60662;48.810;8.872;2023-07-13T10:29:54;2250.00;;;999.90;;
3696;SDS011;60662;48.810;8.872;2023-07-13T10:31:18;912.42;;;833.83;;
3696;SDS011;60662;48.810;8.872;2023-07-13T10:32:21;983.30;;;894.13;;
3696;SDS011;60662;48.810;8.872;2023-07-13T10:33:26;782.70;;;715.42;;
3696;SDS011;60662;48.810;8.872;2023-07-13T10:34:28;857.55;;;786.05;;
3696;SDS011;60662;48.810;8.872;2023-07-13T10:35:30;854.47;;;783.03;;
3696;SDS011;60662;48.810;8.872;2023-07-13T10:36:34;939.83;;;850.35;;
3696;SDS011;60662;48.810;8.872;2023-07-13T10:37:47;2250.00;;;999.90;;
3696;SDS011;60662;48.810;8.872;2023-07-13T10:39:09;2250.00;;;999.90;;
3696;SDS011;60662;48.810;8.872;2023-07-13T10:40:23;2250.00;;;999.90;;
3696;SDS011;60662;48.810;8.872;2023-07-13T10:41:31;2250.00;;;999.90;;
3696;SDS011;60662;48.810;8.872;2023-07-13T10:42:38;2250.00;;;999.90;;
3696;SDS011;60662;48.810;8.872;2023-07-13T10:43:50;2250.00;;;999.90;;
3696;SDS011;60662;48.810;8.872;2023-07-13T10:44:53;2250.00;;;999.90;;
3696;SDS011;60662;48.810;8.872;2023-07-13T10:45:55;524.58;;;469.75;;
3696;SDS011;60662;48.810;8.872;2023-07-13T10:46:58;1047.68;;;949.53;;
3696;SDS011;60662;48.810;8.872;2023-07-13T10:48:02;1034.05;;;933.30;;
3696;SDS011;60662;48.810;8.872;2023-07-13T10:49:05;1040.63;;;942.50;;
3696;SDS011;60662;48.810;8.872;2023-07-13T10:50:18;938.83;;;849.10;;
3696;SDS011;60662;48.810;8.872;2023-07-13T10:51:23;982.63;;;889.10;;
3696;SDS011;60662;48.810;8.872;2023-07-13T10:52:41;1003.05;;;907.50;;
3696;SDS011;60662;48.810;8.872;2023-07-13T10:53:47;1010.17;;;917.92;;
3696;SDS011;60662;48.810;8.872;2023-07-13T10:56:41;1057.80;;;955.80;;
3696;SDS011;60662;48.810;8.872;2023-07-13T10:57:42;2200.00;;;999.90;;
3696;SDS011;60662;48.810;8.872;2023-07-13T10:58:44;1020.20;;;927.28;;
3696;SDS011;60662;48.810;8.872;2023-07-13T11:00:30;1028.95;;;930.55;;
3696;SDS011;60662;48.810;8.872;2023-07-13T11:01:16;770.05;;;705.15;;
3696;SDS011;60662;48.810;8.872;2023-07-13T11:02:25;491.88;;;441.77;;
3696;SDS011;60662;48.810;8.872;2023-07-13T11:03:30;650.67;;;590.03;;
3696;SDS011;60662;48.810;8.872;2023-07-13T11:04:39;621.58;;;561.70;;
3696;SDS011;60662;48.810;8.872;2023-07-13T11:05:47;662.75;;;600.80;;
3696;SDS011;60662;48.810;8.872;2023-07-13T11:06:56;472.88;;;417.08;;
3696;SDS011;60662;48.810;8.872;2023-07-13T11:08:04;605.80;;;545.45;;
3696;SDS011;60662;48.810;8.872;2023-07-13T11:09:18;491.35;;;440.25;;
3696;SDS011;60662;48.810;8.872;2023-07-13T11:10:53;946.88;;;850.40;;
3696;SDS011;60662;48.810;8.872;2023-07-13T11:11:58;634.72;;;577.38;;
3696;SDS011;60662;48.810;8.872;2023-07-13T11:13:27;640.72;;;579.65;;
3696;SDS011;60662;48.810;8.872;2023-07-13T11:15:55;598.20;;;537.65;;
3696;SDS011;60662;48.810;8.872;2023-07-13T11:16:57;1013.67;;;915.08;;
3696;SDS011;60662;48.810;8.872;2023-07-13T11:18:03;594.90;;;539.33;;
3696;SDS011;60662;48.810;8.872;2023-07-13T11:22:41;1083.63;;;977.83;;
3696;SDS011;60662;48.810;8.872;2023-07-13T11:23:52;953.53;;;868.85;;
3696;SDS011;60662;48.810;8.872;2023-07-13T11:25:21;383.15;;;347.50;;
3696;SDS011;60662;48.810;8.872;2023-07-13T11:27:51;1014.00;;;916.75;;
3696;SDS011;60662;48.810;8.872;2023-07-13T11:29:09;773.60;;;701.38;;
3696;SDS011;60662;48.810;8.872;2023-07-13T11:30:32;1178.82;;;999.90;;
3696;SDS011;60662;48.810;8.872;2023-07-13T11:31:53;1126.78;;;999.90;;
3696;SDS011;60662;48.810;8.872;2023-07-13T11:34:28;772.50;;;704.95;;
3696;SDS011;60662;48.810;8.872;2023-07-13T11:35:36;388.67;;;351.35;;
3696;SDS011;60662;48.810;8.872;2023-07-13T11:36:42;794.92;;;712.58;;
3696;SDS011;60662;48.810;8.872;2023-07-13T11:37:46;442.65;;;401.35;;
3696;SDS011;60662;48.810;8.872;2023-07-13T11:40:13;450.48;;;408.77;;
3696;SDS011;60662;48.810;8.872;2023-07-13T11:41:17;465.17;;;422.48;;
3696;SDS011;60662;48.810;8.872;2023-07-13T11:42:21;463.27;;;420.77;;
3696;SDS011;60662;48.810;8.872;2023-07-13T11:43:22;1005.70;;;909.17;;
3696;SDS011;60662;48.810;8.872;2023-07-13T11:44:25;582.83;;;533.08;;
3696;SDS011;60662;48.810;8.872;2023-07-13T11:45:28;652.13;;;599.45;;
3696;SDS011;60662;48.810;8.872;2023-07-13T11:46:51;565.13;;;515.78;;
3696;SDS011;60662;48.810;8.872;2023-07-13T11:47:56;662.05;;;603.33;;
3696;SDS011;60662;48.810;8.872;2023-07-13T11:49:01;1140.15;;;999.90;;
3696;SDS011;60662;48.810;8.872;2023-07-13T11:50:16;661.55;;;602.42;;
3696;SDS011;60662;48.810;8.872;2023-07-13T11:51:23;613.67;;;558.80;;
3696;SDS011;60662;48.810;8.872;2023-07-13T11:52:33;622.88;;;563.45;;
3696;SDS011;60662;48.810;8.872;2023-07-13T11:53:39;926.10;;;839.42;;
3696;SDS011;60662;48.810;8.872;2023-07-13T11:54:49;813.35;;;736.08;;
3696;SDS011;60662;48.810;8.872;2023-07-13T11:55:56;561.08;;;507.20;;
3696;SDS011;60662;48.810;8.872;2023-07-13T11:57:00;530.33;;;478.38;;
3696;SDS011;60662;48.810;8.872;2023-07-13T11:58:07;828.58;;;752.08;;
3696;SDS011;60662;48.810;8.872;2023-07-13T11:59:11;801.33;;;728.85;;
3696;SDS011;60662;48.810;8.872;2023-07-13T12:00:18;1181.00;;;999.90;;
3696;SDS011;60662;48.810;8.872;2023-07-13T12:01:25;973.10;;;880.05;;
3696;SDS011;60662;48.810;8.872;2023-07-13T12:02:37;1016.85;;;916.45;;
3696;SDS011;60662;48.810;8.872;2023-07-13T12:03:43;1109.63;;;982.67;;
3696;SDS011;60662;48.810;8.872;2023-07-13T12:04:47;733.67;;;667.40;;
3696;SDS011;60662;48.810;8.872;2023-07-13T12:05:56;259.10;;;207.93;;
3696;SDS011;60662;48.810;8.872;2023-07-13T12:07:15;544.85;;;495.95;;
3696;SDS011;60662;48.810;8.872;2023-07-13T12:08:18;334.85;;;299.08;;
3696;SDS011;60662;48.810;8.872;2023-07-13T12:09:26;592.30;;;541.95;;
3696;SDS011;60662;48.810;8.872;2023-07-13T12:10:30;651.22;;;594.95;;
3696;SDS011;60662;48.810;8.872;2023-07-13T12:11:35;964.17;;;871.72;;
3696;SDS011;60662;48.810;8.872;2023-07-13T12:12:58;653.13;;;597.47;;
3696;SDS011;60662;48.810;8.872;2023-07-13T12:14:01;335.20;;;300.65;;
3696;SDS011;60662;48.810;8.872;2023-07-13T12:15:06;805.42;;;740.50;;
3696;SDS011;60662;48.810;8.872;2023-07-13T12:16:12;837.80;;;768.25;;
3696;SDS011;60662;48.810;8.872;2023-07-13T12:17:21;934.40;;;856.72;;
3696;SDS011;60662;48.810;8.872;2023-07-13T12:18:28;238.48;;;167.93;;
3696;SDS011;60662;48.810;8.872;2023-07-13T12:19:31;637.30;;;581.30;;
3696;SDS011;60662;48.810;8.872;2023-07-13T12:20:37;199.25;;;115.93;;
3696;SDS011;60662;48.810;8.872;2023-07-13T12:21:41;563.22;;;519.17;;
3696;SDS011;60662;48.810;8.872;2023-07-13T12:22:45;708.47;;;644.95;;
3696;SDS011;60662;48.810;8.872;2023-07-13T12:23:51;952.58;;;876.42;;
3696;SDS011;60662;48.810;8.872;2023-07-13T12:24:52;836.70;;;767.90;;
3696;SDS011;60662;48.810;8.872;2023-07-13T12:25:55;417.88;;;385.65;;
3696;SDS011;60662;48.810;8.872;2023-07-13T12:27:00;766.13;;;705.33;;
3696;SDS011;60662;48.810;8.872;2023-07-13T12:28:19;839.83;;;774.97;;
3696;SDS011;60662;48.810;8.872;2023-07-13T12:29:22;724.90;;;661.05;;
3696;SDS011;60662;48.810;8.872;2023-07-13T12:30:25;607.65;;;552.67;;
3696;SDS011;60662;48.810;8.872;2023-07-13T12:31:40;555.72;;;503.70;;
3696;SDS011;60662;48.810;8.872;2023-07-13T12:32:47;882.70;;;807.90;;
3696;SDS011;60662;48.810;8.872;2023-07-13T12:34:02;591.78;;;537.95;;
3696;SDS011;60662;48.810;8.872;2023-07-13T12:35:15;890.50;;;817.75;;
3696;SDS011;60662;48.810;8.872;2023-07-13T12:36:23;648.65;;;599.78;;
3696;SDS011;60662;48.810;8.872;2023-07-13T12:37:25;275.55;;;254.23;;
3696;SDS011;60662;48.810;8.872;2023-07-13T12:38:26;328.83;;;292.65;;
3696;SDS011;60662;48.810;8.872;2023-07-13T12:39:35;621.08;;;563.03;;
3696;SDS011;60662;48.810;8.872;2023-07-13T12:40:39;177.65;;;72.10;;
3696;SDS011;60662;48.810;8.872;2023-07-13T12:41:41;930.47;;;853.15;;
3696;SDS011;60662;48.810;8.872;2023-07-13T12:42:46;878.38;;;806.58;;
3696;SDS011;60662;48.810;8.872;2023-07-13T12:43:49;865.65;;;795.15;;
3696;SDS011;60662;48.810;8.872;2023-07-13T12:44:58;540.75;;;491.00;;
3696;SDS011;60662;48.810;8.872;2023-07-13T12:46:04;375.27;;;328.15;;
3696;SDS011;60662;48.810;8.872;2023-07-13T12:47:19;697.85;;;633.97;;
3696;SDS011;60662;48.810;8.872;2023-07-13T12:48:21;255.23;;;178.93;;
3696;SDS011;60662;48.810;8.872;2023-07-13T12:49:42;631.60;;;574.30;;
3696;SDS011;60662;48.810;8.872;2023-07-13T12:50:49;914.67;;;840.53;;
3696;SDS011;60662;48.810;8.872;2023-07-13T12:51:55;912.53;;;837.92;;
3696;SDS011;60662;48.810;8.872;2023-07-13T12:53:02;765.03;;;701.65;;
3696;SDS011;60662;48.810;8.872;2023-07-13T12:54:07;492.98;;;457.40;;
3696;SDS011;60662;48.810;8.872;2023-07-13T12:55:17;458.65;;;426.10;;
3696;SDS011;60662;48.810;8.872;2023-07-13T12:56:23;905.10;;;830.08;;
3696;SDS011;60662;48.810;8.872;2023-07-13T12:57:27;792.28;;;728.97;;
3696;SDS011;60662;48.810;8.872;2023-07-13T12:58:30;700.65;;;637.65;;
3696;SDS011;60662;48.810;8.872;2023-07-13T12:59:37;186.43;;;86.90;;
3696;SDS011;60662;48.810;8.872;2023-07-13T13:00:39;299.55;;;258.27;;
3696;SDS011;60662;48.810;8.872;2023-07-13T13:01:40;498.20;;;451.27;;
3696;SDS011;60662;48.810;8.872;2023-07-13T13:02:42;841.92;;;772.40;;
3696;SDS011;60662;48.810;8.872;2023-07-13T13:03:48;929.33;;;850.35;;
3696;SDS011;60662;48.810;8.872;2023-07-13T13:04:55;429.25;;;385.92;;
3696;SDS011;60662;48.810;8.872;2023-07-13T13:05:59;900.85;;;827.47;;
3696;SDS011;60662;48.810;8.872;2023-07-13T13:07:08;761.33;;;703.22;;
3696;SDS011;60662;48.810;8.872;2023-07-13T13:08:11;761.75;;;701.55;;
3696;SDS011;60662;48.810;8.872;2023-07-13T13:09:14;754.00;;;697.35;;
3696;SDS011;60662;48.810;8.872;2023-07-13T13:10:16;871.28;;;802.33;;
3696;SDS011;60662;48.810;8.872;2023-07-13T13:11:19;867.97;;;799.35;;
3696;SDS011;60662;48.810;8.872;2023-07-13T13:12:22;774.25;;;714.67;;
3696;SDS011;60662;48.810;8.872;2023-07-13T13:13:23;880.65;;;808.28;;
3696;SDS011;60662;48.810;8.872;2023-07-13T13:14:25;595.08;;;551.67;;
3696;SDS011;60662;48.810;8.872;2023-07-13T13:15:27;923.22;;;847.85;;
3696;SDS011;60662;48.810;8.872;2023-07-13T13:16:29;761.05;;;704.17;;
3696;SDS011;60662;48.810;8.872;2023-07-13T13:17:36;779.13;;;720.80;;
3696;SDS011;60662;48.810;8.872;2023-07-13T13:18:37;946.75;;;868.70;;
3696;SDS011;60662;48.810;8.872;2023-07-13T13:19:39;175.70;;;159.25;;
3696;SDS011;60662;48.810;8.872;2023-07-13T13:20:40;454.50;;;420.42;;
3696;SDS011;60662;48.810;8.872;2023-07-13T13:21:42;13.80;;;3.28;;
3696;SDS011;60662;48.810;8.872;2023-07-13T13:22:45;87.30;;;80.47;;
3696;SDS011;60662;48.810;8.872;2023-07-13T13:23:47;33.65;;;29.35;;
3696;SDS011;60662;48.810;8.872;2023-07-13T13:24:48;10.65;;;2.95;;
3696;SDS011;60662;48.810;8.872;2023-07-13T13:25:50;153.35;;;142.80;;
3696;SDS011;60662;48.810;8.872;2023-07-13T13:26:52;5.32;;;1.00;;
3696;SDS011;60662;48.810;8.872;2023-07-13T13:27:55;12.60;;;1.77;;
3696;SDS011;60662;48.810;8.872;2023-07-13T13:28:57;6.90;;;1.10;;
3696;SDS011;60662;48.810;8.872;2023-07-13T13:29:59;6.35;;;1.20;;
3696;SDS011;60662;48.810;8.872;2023-07-13T13:31:01;46.70;;;42.58;;
3696;SDS011;60662;48.810;8.872;2023-07-13T13:32:03;8.45;;;2.13;;
3696;SDS011;60662;48.810;8.872;2023-07-13T13:33:10;17.80;;;1.25;;
3696;SDS011;60662;48.810;8.872;2023-07-13T13:34:14;16.52;;;2.33;;
3696;SDS011;60662;48.810;8.872;2023-07-13T13:35:17;12.15;;;2.97;;
3696;SDS011;60662;48.810;8.872;2023-07-13T13:36:22;114.65;;;106.65;;
3696;SDS011;60662;48.810;8.872;2023-07-13T13:37:24;10.02;;;1.80;;
3696;SDS011;60662;48.810;8.872;2023-07-13T13:38:27;6.07;;;1.35;;
3696;SDS011;60662;48.810;8.872;2023-07-13T13:39:30;6.22;;;1.50;;
3696;SDS011;60662;48.810;8.872;2023-07-13T13:40:34;10.43;;;3.38;;
3696;SDS011;60662;48.810;8.872;2023-07-13T13:41:36;8.52;;;1.35;;
3696;SDS011;60662;48.810;8.872;2023-07-13T13:42:37;9.35;;;3.00;;
3696;SDS011;60662;48.810;8.872;2023-07-13T13:43:39;7.57;;;2.15;;
3696;SDS011;60662;48.810;8.872;2023-07-13T13:44:42;7.15;;;1.80;;
3696;SDS011;60662;48.810;8.872;2023-07-13T13:45:45;10.80;;;3.90;;
3696;SDS011;60662;48.810;8.872;2023-07-13T13:46:48;8.52;;;1.42;;
3696;SDS011;60662;48.810;8.872;2023-07-13T13:47:53;71.90;;;65.60;;
3696;SDS011;60662;48.810;8.872;2023-07-13T13:48:56;593.60;;;549.38;;
3696;SDS011;60662;48.810;8.872;2023-07-13T13:49:57;887.15;;;815.20;;
3696;SDS011;60662;48.810;8.872;2023-07-13T13:51:00;499.85;;;451.75;;
3696;SDS011;60662;48.810;8.872;2023-07-13T13:52:04;834.17;;;767.10;;
3696;SDS011;60662;48.810;8.872;2023-07-13T13:53:09;894.15;;;821.85;;
3696;SDS011;60662;48.810;8.872;2023-07-13T13:54:13;831.33;;;765.30;;
3696;SDS011;60662;48.810;8.872;2023-07-13T13:55:18;453.02;;;421.13;;
3696;SDS011;60662;48.810;8.872;2023-07-13T13:56:21;426.35;;;396.25;;
3696;SDS011;60662;48.810;8.872;2023-07-13T13:57:23;629.08;;;579.28;;
3696;SDS011;60662;48.810;8.872;2023-07-13T13:58:26;478.33;;;444.70;;
3696;SDS011;60662;48.810;8.872;2023-07-13T13:59:27;70.88;;;64.88;;
3696;SDS011;60662;48.810;8.872;2023-07-13T14:00:28;57.15;;;51.80;;
3696;SDS011;60662;48.810;8.872;2023-07-13T14:01:31;6.15;;;1.35;;
3696;SDS011;60662;48.810;8.872;2023-07-13T14:02:32;294.92;;;275.10;;
3696;SDS011;60662;48.810;8.872;2023-07-13T14:03:34;37.10;;;31.95;;
3696;SDS011;60662;48.810;8.872;2023-07-13T14:04:35;484.75;;;450.15;;
3696;SDS011;60662;48.810;8.872;2023-07-13T14:05:37;120.63;;;111.95;;
3696;SDS011;60662;48.810;8.872;2023-07-13T14:06:42;10.52;;;3.83;;
3696;SDS011;60662;48.810;8.872;2023-07-13T14:07:43;72.25;;;65.93;;
3696;SDS011;60662;48.810;8.872;2023-07-13T14:08:45;8.82;;;1.50;;
3696;SDS011;60662;48.810;8.872;2023-07-13T14:09:48;10.50;;;4.05;;
3696;SDS011;60662;48.810;8.872;2023-07-13T14:10:51;61.13;;;56.20;;
3696;SDS011;60662;48.810;8.872;2023-07-13T14:11:55;7.90;;;1.33;;
3696;SDS011;60662;48.810;8.872;2023-07-13T14:12:58;51.70;;;47.42;;
3696;SDS011;60662;48.810;8.872;2023-07-13T14:13:59;524.50;;;486.42;;
3696;SDS011;60662;48.810;8.872;2023-07-13T14:15:01;51.53;;;47.15;;
3696;SDS011;60662;48.810;8.872;2023-07-13T14:16:07;161.38;;;149.43;;
3696;SDS011;60662;48.810;8.872;2023-07-13T14:17:17;634.35;;;588.22;;
3696;SDS011;60662;48.810;8.872;2023-07-13T14:18:22;911.58;;;837.95;;
3696;SDS011;60662;48.810;8.872;2023-07-13T14:19:25;805.60;;;743.95;;
3696;SDS011;60662;48.810;8.872;2023-07-13T14:20:27;950.13;;;872.97;;
3696;SDS011;60662;48.810;8.872;2023-07-13T14:21:30;480.20;;;446.13;;
3696;SDS011;60662;48.810;8.872;2023-07-13T14:22:32;663.78;;;614.60;;
3696;SDS011;60662;48.810;8.872;2023-07-13T14:23:33;531.33;;;492.50;;
3696;SDS011;60662;48.810;8.872;2023-07-13T14:24:35;186.32;;;171.48;;
3696;SDS011;60662;48.810;8.872;2023-07-13T14:25:36;29.95;;;19.52;;
3696;SDS011;60662;48.810;8.872;2023-07-13T14:26:39;92.07;;;85.32;;
3696;SDS011;60662;48.810;8.872;2023-07-13T14:27:43;354.20;;;328.33;;
3696;SDS011;60662;48.810;8.872;2023-07-13T14:28:47;471.30;;;436.35;;
3696;SDS011;60662;48.810;8.872;2023-07-13T14:29:49;382.83;;;354.75;;
3696;SDS011;60662;48.810;8.872;2023-07-13T14:30:51;657.63;;;607.03;;
3696;SDS011;60662;48.810;8.872;2023-07-13T14:31:55;59.35;;;54.42;;
3696;SDS011;60662;48.810;8.872;2023-07-13T14:32:57;12.27;;;3.35;;
3696;SDS011;60662;48.810;8.872;2023-07-13T14:33:58;9.15;;;3.30;;
3696;SDS011;60662;48.810;8.872;2023-07-13T14:35:00;15.82;;;1.80;;
3696;SDS011;60662;48.810;8.872;2023-07-13T14:36:02;7.40;;;1.50;;
3696;SDS011;60662;48.810;8.872;2023-07-13T14:37:14;8.60;;;2.13;;
3696;SDS011;60662;48.810;8.872;2023-07-13T14:38:18;22.20;;;18.60;;
3696;SDS011;60662;48.810;8.872;2023-07-13T14:39:22;373.05;;;345.08;;
3696;SDS011;60662;48.810;8.872;2023-07-13T14:40:29;241.40;;;223.65;;
3696;SDS011;60662;48.810;8.872;2023-07-13T14:41:32;18.73;;;9.82;;
3696;SDS011;60662;48.810;8.872;2023-07-13T14:42:34;22.55;;;19.67;;
3696;SDS011;60662;48.810;8.872;2023-07-13T14:43:35;18.25;;;10.18;;
3696;SDS011;60662;48.810;8.872;2023-07-13T14:44:37;296.13;;;273.98;;
3696;SDS011;60662;48.810;8.872;2023-07-13T14:45:40;41.90;;;38.00;;
3696;SDS011;60662;48.810;8.872;2023-07-13T14:46:45;554.78;;;514.38;;
3696;SDS011;60662;48.810;8.872;2023-07-13T14:47:48;18.15;;;13.85;;
3696;SDS011;60662;48.810;8.872;2023-07-13T14:48:49;283.45;;;263.55;;
3696;SDS011;60662;48.810;8.872;2023-07-13T14:49:51;94.55;;;87.70;;
3696;SDS011;60662;48.810;8.872;2023-07-13T14:50:53;24.07;;;20.53;;
3696;SDS011;60662;48.810;8.872;2023-07-13T14:51:58;205.23;;;190.77;;
3696;SDS011;60662;48.810;8.872;2023-07-13T14:53:29;12.48;;;4.95;;
3696;SDS011;60662;48.810;8.872;2023-07-13T14:54:31;7.50;;;2.17;;
3696;SDS011;60662;48.810;8.872;2023-07-13T14:55:32;25.83;;;22.70;;
3696;SDS011;60662;48.810;8.872;2023-07-13T14:56:34;143.57;;;133.45;;
3696;SDS011;60662;48.810;8.872;2023-07-13T14:57:35;174.73;;;162.63;;
3696;SDS011;60662;48.810;8.872;2023-07-13T14:58:36;59.57;;;54.63;;
3696;SDS011;60662;48.810;8.872;2023-07-13T14:59:42;15.10;;;10.37;;
3696;SDS011;60662;48.810;8.872;2023-07-13T15:00:47;11.53;;;3.47;;
3696;SDS011;60662;48.810;8.872;2023-07-13T15:01:51;11.40;;;4.97;;
3696;SDS011;60662;48.810;8.872;2023-07-13T15:02:53;9.77;;;2.10;;
3696;SDS011;60662;48.810;8.872;2023-07-13T15:03:58;19.20;;;17.13;;
3696;SDS011;60662;48.810;8.872;2023-07-13T15:05:00;9.90;;;1.70;;